createdAt,value
2022-11-27T00:01:56.296Z,0
2022-11-27T00:03:58.282Z,0
2022-11-27T00:08:01.405Z,0
2022-11-27T00:10:02.614Z,0
2022-11-27T00:12:04.704Z,0
2022-11-27T00:14:06.579Z,0
2022-11-27T00:16:07.956Z,0
2022-11-27T00:18:09.106Z,0
2022-11-27T00:20:10.741Z,0
2022-11-27T00:22:12.409Z,0.14
2022-11-27T00:24:13.624Z,0
2022-11-27T00:26:14.694Z,0
2022-11-27T00:28:15.861Z,0.14
2022-11-27T00:30:17.153Z,0
2022-11-27T00:32:19.182Z,0
2022-11-27T00:34:20.815Z,0
2022-11-27T00:36:22.057Z,0
2022-11-27T00:40:25.056Z,0
2022-11-27T00:42:26.257Z,0
2022-11-27T00:44:27.442Z,0
2022-11-27T00:46:29.273Z,0
2022-11-27T00:50:32.109Z,0
2022-11-27T00:52:33.406Z,0
2022-11-27T00:54:35.284Z,0
2022-11-27T00:56:36.804Z,0
2022-11-27T00:58:38.507Z,0
2022-11-27T01:00:40.325Z,0
2022-11-27T01:02:41.776Z,0
2022-11-27T01:04:43.691Z,0
2022-11-27T01:06:45.380Z,0
2022-11-27T01:08:47.442Z,0
2022-11-27T01:12:50.740Z,0
2022-11-27T01:14:52.642Z,0
2022-11-27T01:16:53.904Z,0
2022-11-27T01:18:55.289Z,0
2022-11-27T01:22:58.355Z,0
2022-11-27T01:24:59.721Z,0
2022-11-27T01:27:00.935Z,0
2022-11-27T01:29:02.637Z,0
2022-11-27T01:33:05.201Z,0
2022-11-27T01:35:06.503Z,0
2022-11-27T01:37:07.616Z,0
2022-11-27T01:39:08.993Z,0
2022-11-27T01:41:10.967Z,0
2022-11-27T01:43:12.523Z,0
2022-11-27T01:45:14.175Z,0
2022-11-27T01:47:16.041Z,0
2022-11-27T01:49:17.456Z,0
2022-11-27T01:51:19.376Z,0
2022-11-27T01:53:21.168Z,0
2022-11-27T01:55:22.460Z,0
2022-11-27T01:57:23.836Z,0
2022-11-27T01:59:25.087Z,0
2022-11-27T02:01:26.738Z,0
2022-11-27T02:03:28.615Z,0
2022-11-27T02:05:30.036Z,0
2022-11-27T02:07:31.397Z,0
2022-11-27T02:09:33.214Z,0
2022-11-27T02:11:34.981Z,0
2022-11-27T02:13:36.506Z,0
2022-11-27T02:15:38.365Z,0
2022-11-27T02:17:39.871Z,0
2022-11-27T02:19:41.255Z,0
2022-11-27T02:21:42.448Z,0
2022-11-27T02:23:43.931Z,0
2022-11-27T02:25:45.451Z,0
2022-11-27T02:27:46.564Z,0
2022-11-27T02:29:48.158Z,0
2022-11-27T02:31:49.741Z,0
2022-11-27T02:33:51.727Z,0
2022-11-27T02:35:53.449Z,0
2022-11-27T02:37:55.176Z,0
2022-11-27T02:39:56.635Z,0
2022-11-27T02:41:58.593Z,0
2022-11-27T02:44:00.407Z,0
2022-11-27T02:46:02.443Z,0
2022-11-27T02:48:03.493Z,0
2022-11-27T02:50:05.462Z,0
2022-11-27T02:52:06.566Z,0
2022-11-27T02:54:08.464Z,0
2022-11-27T02:56:09.785Z,0
2022-11-27T02:58:11.111Z,0
2022-11-27T03:00:12.330Z,0
2022-11-27T03:02:14.230Z,0
2022-11-27T03:04:15.758Z,0
2022-11-27T03:06:17.787Z,0
2022-11-27T03:08:19.177Z,0
2022-11-27T03:10:20.958Z,0
2022-11-27T03:12:22.123Z,0
2022-11-27T03:14:23.776Z,0
2022-11-27T03:16:25.355Z,0
2022-11-27T03:18:26.981Z,0
2022-11-27T03:20:28.452Z,0
2022-11-27T03:22:30.430Z,0
2022-11-27T03:24:31.848Z,0
2022-11-27T03:26:33.084Z,0
2022-11-27T03:27:17.007Z,0.14
2022-11-27T03:29:18.801Z,0
2022-11-27T03:31:20.571Z,0
2022-11-27T03:33:22.235Z,0.14
2022-11-27T03:35:23.801Z,0
2022-11-27T03:37:25.678Z,0.14
2022-11-27T03:41:28.672Z,1.263
2022-11-27T03:43:30.350Z,0.14
2022-11-27T03:45:31.935Z,0.28
2022-11-27T03:47:33.487Z,0
2022-11-27T03:51:37.217Z,0
2022-11-27T03:53:38.963Z,0
2022-11-27T03:55:40.684Z,0
2022-11-27T03:57:42.641Z,0
2022-11-27T03:59:51.708Z,0
2022-11-27T04:01:45.815Z,0.421
2022-11-27T04:03:47.353Z,0
2022-11-27T04:05:48.530Z,0
2022-11-27T04:07:59.052Z,0
2022-11-27T04:09:51.698Z,0
2022-11-27T04:11:53.268Z,0
2022-11-27T04:13:54.483Z,0
2022-11-27T04:15:55.671Z,0
2022-11-27T04:17:56.790Z,0
2022-11-27T04:19:58.001Z,0
2022-11-27T04:24:01.053Z,0
2022-11-27T04:26:02.221Z,0
2022-11-27T04:28:03.428Z,0
2022-11-27T04:30:05.474Z,0
2022-11-27T04:34:08.569Z,1.965
2022-11-27T04:36:10.618Z,1.544
2022-11-27T04:38:11.972Z,2.527
2022-11-27T04:40:13.431Z,1.825
2022-11-27T04:42:14.804Z,0.842
2022-11-27T04:46:17.852Z,0.14
2022-11-27T04:48:18.953Z,0
2022-11-27T04:50:20.749Z,0
2022-11-27T04:52:22.522Z,0
2022-11-27T04:56:25.877Z,0
2022-11-27T04:58:27.428Z,0
2022-11-27T05:00:29.009Z,0
2022-11-27T05:02:30.425Z,0
2022-11-27T05:06:33.236Z,2.246
2022-11-27T05:08:35.218Z,1.263
2022-11-27T05:10:36.637Z,1.544
2022-11-27T05:12:38.261Z,1.684
2022-11-27T05:16:41.675Z,0.982
2022-11-27T05:18:42.556Z,1.263
2022-11-27T05:20:44.267Z,0.702
2022-11-27T05:22:45.967Z,0
2022-11-27T05:24:47.841Z,0
2022-11-27T05:26:49.738Z,0
2022-11-27T05:28:51.085Z,0
2022-11-27T05:30:52.427Z,0
2022-11-27T05:32:53.683Z,0
2022-11-27T05:34:54.990Z,0
2022-11-27T05:36:56.353Z,0
2022-11-27T05:38:57.702Z,0
2022-11-27T05:40:59.502Z,0
2022-11-27T05:43:00.989Z,0
2022-11-27T05:45:02.476Z,0
2022-11-27T05:47:03.692Z,0
2022-11-27T05:49:05.510Z,0
2022-11-27T05:51:07.121Z,0
2022-11-27T05:53:08.469Z,0
2022-11-27T05:55:09.882Z,0
2022-11-27T05:57:11.937Z,0
2022-11-27T05:59:13.441Z,0
2022-11-27T06:01:15.240Z,0
2022-11-27T06:03:16.747Z,0
2022-11-27T06:05:18.575Z,0
2022-11-27T06:07:20.400Z,0
2022-11-27T06:09:21.747Z,0
2022-11-27T06:11:23.099Z,0
2022-11-27T06:13:24.698Z,0
2022-11-27T06:15:26.052Z,0
2022-11-27T06:17:27.303Z,0
2022-11-27T06:19:29.284Z,0
2022-11-27T06:21:30.810Z,0
2022-11-27T06:23:32.634Z,0
2022-11-27T06:25:34.659Z,0
2022-11-27T06:27:35.758Z,0
2022-11-27T06:29:37.163Z,0
2022-11-27T06:31:38.773Z,0
2022-11-27T06:33:39.948Z,0
2022-11-27T06:35:41.721Z,0
2022-11-27T06:37:43.291Z,0
2022-11-27T06:39:45.408Z,0
2022-11-27T06:41:46.819Z,0
2022-11-27T06:43:48.864Z,0
2022-11-27T06:45:50.971Z,0
2022-11-27T06:47:52.292Z,0
2022-11-27T06:49:54.265Z,0
2022-11-27T06:51:55.602Z,0
2022-11-27T06:53:56.761Z,0
2022-11-27T06:55:58.256Z,0
2022-11-27T06:57:59.413Z,0
2022-11-27T07:00:00.848Z,0
2022-11-27T07:02:02.662Z,0
2022-11-27T07:04:04.532Z,0
2022-11-27T07:06:05.974Z,0
2022-11-27T07:08:07.201Z,0
2022-11-27T07:10:08.978Z,0
2022-11-27T07:12:10.945Z,0
2022-11-27T07:14:12.652Z,0
2022-11-27T07:16:14.096Z,0
2022-11-27T07:18:15.738Z,0
2022-11-27T07:20:16.825Z,0
2022-11-27T07:22:18.271Z,0
2022-11-27T07:24:20.337Z,0
2022-11-27T07:26:21.777Z,0
2022-11-27T07:30:24.238Z,0
2022-11-27T07:32:25.489Z,0
2022-11-27T07:34:26.746Z,0
2022-11-27T07:36:28.019Z,0
2022-11-27T07:40:30.878Z,0
2022-11-27T07:42:38.588Z,0
2022-11-27T07:44:33.209Z,0
2022-11-27T07:46:34.789Z,0
2022-11-27T07:48:36.385Z,0
2022-11-27T07:50:37.571Z,0
2022-11-27T07:52:41.715Z,0
2022-11-27T07:54:40.696Z,0
2022-11-27T07:56:41.692Z,0
2022-11-27T07:58:43.572Z,1.825
2022-11-27T08:00:44.728Z,3.088
2022-11-27T08:02:46.115Z,2.527
2022-11-27T08:04:47.529Z,2.948
2022-11-27T08:06:48.581Z,3.369
2022-11-27T08:08:50.521Z,2.948
2022-11-27T08:12:53.461Z,2.667
2022-11-27T08:14:55.310Z,0.421
2022-11-27T08:16:57.125Z,1.123
2022-11-27T08:18:59.086Z,0.28
2022-11-27T08:23:03.117Z,2.246
2022-11-27T08:25:03.650Z,2.106
2022-11-27T08:27:05.673Z,0.842
2022-11-27T08:29:07.447Z,0
2022-11-27T08:31:09.081Z,0.561
2022-11-27T08:35:12.714Z,1.825
2022-11-27T08:37:13.984Z,1.263
2022-11-27T08:39:15.231Z,1.544
2022-11-27T08:41:16.357Z,1.404
2022-11-27T08:45:19.699Z,0
2022-11-27T08:47:21.114Z,0
2022-11-27T08:49:22.798Z,0
2022-11-27T08:51:24.162Z,0
2022-11-27T08:55:27.917Z,0
2022-11-27T08:57:29.703Z,0.702
2022-11-27T08:59:31.646Z,1.123
2022-11-27T09:01:33.101Z,1.123
2022-11-27T09:05:36.345Z,0
2022-11-27T09:07:37.994Z,0
2022-11-27T09:09:39.214Z,0
2022-11-27T09:11:41.074Z,0.421
2022-11-27T09:13:42.383Z,0
2022-11-27T09:15:44.346Z,0
2022-11-27T09:17:45.902Z,0
2022-11-27T09:19:47.223Z,0
2022-11-27T09:21:48.999Z,0
2022-11-27T09:23:50.546Z,0.421
2022-11-27T09:25:52.156Z,0.702
2022-11-27T09:27:53.687Z,0.421
2022-11-27T09:29:54.999Z,0
2022-11-27T09:31:56.172Z,0
2022-11-27T09:33:57.316Z,0.28
2022-11-27T09:35:58.341Z,0
2022-11-27T09:37:59.726Z,0
2022-11-27T09:40:01.125Z,0
2022-11-27T09:42:02.691Z,0
2022-11-27T09:44:03.882Z,0
2022-11-27T09:46:05.240Z,0
2022-11-27T09:48:06.506Z,0.28
2022-11-27T09:50:07.852Z,0.28
2022-11-27T09:52:09.578Z,0
2022-11-27T09:54:11.181Z,0
2022-11-27T09:56:12.795Z,0.28
2022-11-27T09:58:14.168Z,0
2022-11-27T10:00:15.542Z,0
2022-11-27T10:02:16.988Z,1.123
2022-11-27T10:04:18.284Z,0
2022-11-27T10:06:20.667Z,0.28
2022-11-27T10:08:22.105Z,0
2022-11-27T10:10:24.704Z,0.842
2022-11-27T10:12:25.652Z,1.263
2022-11-27T10:13:09.471Z,0.28
2022-11-27T10:15:11.378Z,0.702
2022-11-27T10:17:12.337Z,0.14
2022-11-27T10:19:13.373Z,0.14
2022-11-27T10:21:15.023Z,1.825
2022-11-27T10:23:16.034Z,0.14
2022-11-27T10:25:17.149Z,0.702
2022-11-27T10:27:18.088Z,0
2022-11-27T10:31:20.846Z,1.123
2022-11-27T10:33:22.554Z,0
2022-11-27T10:35:24.414Z,0
2022-11-27T10:37:25.812Z,0
2022-11-27T10:41:48.023Z,0
2022-11-27T10:43:31.337Z,0
2022-11-27T10:45:32.640Z,0
2022-11-27T10:47:33.989Z,0
2022-11-27T10:49:35.482Z,0
2022-11-27T10:51:37.109Z,2.808
2022-11-27T10:53:38.698Z,1.684
2022-11-27T10:55:39.812Z,1.684
2022-11-27T10:57:41.168Z,0.28
2022-11-27T10:59:42.105Z,0.14
2022-11-27T11:01:43.949Z,1.263
2022-11-27T11:03:45.608Z,0.28
2022-11-27T11:06:11.947Z,2.246
2022-11-27T11:07:48.815Z,2.106
2022-11-27T11:09:50.289Z,1.404
2022-11-27T11:13:52.719Z,0
2022-11-27T11:15:54.226Z,0
2022-11-27T11:17:55.198Z,0
2022-11-27T11:19:56.147Z,1.404
2022-11-27T11:23:58.366Z,1.825
2022-11-27T11:26:00.301Z,0
2022-11-27T11:28:01.860Z,3.79
2022-11-27T11:30:03.462Z,1.544
2022-11-27T11:32:04.819Z,0
2022-11-27T11:34:05.848Z,0
2022-11-27T11:36:07.805Z,0
2022-11-27T11:38:09.325Z,0
2022-11-27T11:40:14.711Z,0
2022-11-27T11:42:13.069Z,1.544
2022-11-27T11:44:14.720Z,1.263
2022-11-27T11:46:16.113Z,2.386
2022-11-27T11:48:17.353Z,0.421
2022-11-27T11:50:18.405Z,0.702
2022-11-27T11:52:19.911Z,0
2022-11-27T11:56:22.825Z,0
2022-11-27T11:58:24.307Z,0
2022-11-27T12:00:30.221Z,0
2022-11-27T12:02:27.043Z,0.28
2022-11-27T12:04:28.203Z,1.404
2022-11-27T12:06:29.672Z,0.28
2022-11-27T12:08:31.512Z,0
2022-11-27T12:10:32.525Z,1.263
2022-11-27T12:12:33.606Z,0.14
2022-11-27T12:14:35.037Z,0.14
2022-11-27T12:16:36.355Z,0
2022-11-27T12:18:37.463Z,0
2022-11-27T12:20:38.329Z,0.28
2022-11-27T12:22:39.897Z,0.982
2022-11-27T12:24:41.461Z,0
2022-11-27T12:26:42.125Z,1.544
2022-11-27T12:28:44.053Z,5.756
2022-11-27T12:30:45.280Z,3.65
2022-11-27T12:32:46.261Z,2.106
2022-11-27T12:34:48.410Z,0
2022-11-27T12:36:49.733Z,2.106
2022-11-27T12:38:51.445Z,0
2022-11-27T12:40:52.712Z,0.982
2022-11-27T12:42:53.938Z,0.14
2022-11-27T12:44:55.015Z,0.702
2022-11-27T12:46:56.422Z,1.544
2022-11-27T12:48:57.458Z,1.263
2022-11-27T12:50:59.132Z,1.123
2022-11-27T12:53:00.341Z,0
2022-11-27T12:55:01.444Z,0.702
2022-11-27T13:01:05.683Z,4.914
2022-11-27T13:03:06.636Z,3.51
2022-11-27T13:05:07.853Z,1.965
2022-11-27T13:15:16.420Z,3.79
2022-11-27T13:17:17.838Z,8.704
2022-11-27T13:19:19.364Z,5.756
2022-11-27T13:21:20.357Z,7.02
2022-11-27T13:23:21.948Z,5.616
2022-11-27T13:27:24.706Z,5.616
2022-11-27T13:29:26.494Z,5.194
2022-11-27T13:31:28.172Z,3.229
2022-11-27T13:33:29.279Z,7.722
2022-11-27T13:37:31.762Z,5.194
2022-11-27T13:39:32.959Z,9.547
2022-11-27T13:41:34.884Z,3.931
2022-11-27T13:43:36.313Z,10.389
2022-11-27T13:45:37.674Z,7.862
2022-11-27T13:47:38.712Z,7.722
2022-11-27T13:49:40.639Z,5.896
2022-11-27T13:51:41.956Z,5.475
2022-11-27T13:53:43.497Z,4.773
2022-11-27T13:55:44.631Z,6.598
2022-11-27T13:57:46.627Z,5.475
2022-11-27T13:59:49.021Z,1.544
2022-11-27T14:01:50.917Z,7.441
2022-11-27T14:03:52.363Z,5.335
2022-11-27T14:05:53.682Z,8.283
2022-11-27T14:09:56.820Z,6.879
2022-11-27T14:11:58.006Z,5.616
2022-11-27T14:13:59.692Z,9.968
2022-11-27T14:16:01.182Z,5.756
2022-11-27T14:20:03.689Z,9.687
2022-11-27T14:22:04.912Z,6.458
2022-11-27T14:24:06.511Z,8.002
2022-11-27T14:26:11.978Z,9.828
2022-11-27T14:28:10.124Z,7.862
2022-11-27T14:30:11.326Z,5.896
2022-11-27T14:32:12.829Z,5.756
2022-11-27T14:34:16.938Z,8.704
2022-11-27T14:36:15.571Z,9.687
2022-11-27T14:38:17.027Z,5.896
2022-11-27T14:40:18.418Z,2.527
2022-11-27T14:42:20.529Z,4.352
2022-11-27T14:44:21.997Z,3.369
2022-11-27T14:46:23.295Z,6.318
2022-11-27T14:48:24.218Z,6.458
2022-11-27T14:52:27.567Z,5.616
2022-11-27T14:54:29.167Z,6.177
2022-11-27T14:56:30.866Z,5.896
2022-11-27T14:58:32.802Z,5.896
2022-11-27T15:02:35.869Z,8.845
2022-11-27T15:04:36.877Z,9.687
2022-11-27T15:06:38.246Z,8.845
2022-11-27T15:08:39.516Z,7.441
2022-11-27T15:10:41.252Z,8.002
2022-11-27T15:14:44.510Z,10.389
2022-11-27T15:16:45.778Z,7.16
2022-11-27T15:18:46.990Z,7.3
2022-11-27T15:20:48.927Z,7.581
2022-11-27T15:24:52.000Z,4.633
2022-11-27T15:26:53.332Z,5.756
2022-11-27T15:28:54.891Z,6.879
2022-11-27T15:30:56.408Z,8.424
2022-11-27T15:34:58.786Z,7.3
2022-11-27T15:36:59.877Z,6.037
2022-11-27T15:39:00.856Z,8.704
2022-11-27T15:41:02.082Z,6.458
2022-11-27T15:43:03.743Z,6.458
2022-11-27T15:45:05.271Z,5.475
2022-11-27T15:47:06.621Z,3.51
2022-11-27T15:49:07.913Z,3.369
2022-11-27T15:51:09.263Z,5.335
2022-11-27T15:53:11.115Z,2.667
2022-11-27T15:55:12.637Z,2.808
2022-11-27T15:57:13.804Z,1.684
2022-11-27T15:59:15.384Z,3.088
2022-11-27T16:01:17.324Z,4.914
2022-11-27T16:03:18.881Z,0.982
2022-11-27T16:05:20.724Z,3.79
2022-11-27T16:07:21.948Z,2.386
2022-11-27T16:09:23.183Z,1.544
2022-11-27T16:11:24.368Z,1.404
2022-11-27T16:13:25.705Z,2.948
2022-11-27T16:15:31.537Z,1.684
2022-11-27T16:17:28.940Z,0
2022-11-27T16:19:30.535Z,3.79
2022-11-27T16:21:31.774Z,3.931
2022-11-27T16:23:33.393Z,1.123
2022-11-27T16:25:34.445Z,1.263
2022-11-27T16:27:35.785Z,2.667
2022-11-27T16:29:36.978Z,4.633
2022-11-27T16:31:38.897Z,1.404
2022-11-27T16:33:40.444Z,1.123
2022-11-27T16:35:42.024Z,0
2022-11-27T16:37:43.083Z,3.65
2022-11-27T16:39:44.580Z,3.65
2022-11-27T16:41:46.520Z,2.246
2022-11-27T16:43:48.490Z,4.914
2022-11-27T16:45:49.600Z,2.808
2022-11-27T16:47:50.934Z,2.246
2022-11-27T16:49:52.167Z,3.79
2022-11-27T16:51:53.816Z,5.194
2022-11-27T16:53:54.941Z,5.335
2022-11-27T16:55:56.652Z,3.79
2022-11-27T16:57:57.659Z,8.424
2022-11-27T17:00:42.982Z,5.756
2022-11-27T17:02:44.958Z,7.16
2022-11-27T17:04:46.464Z,5.054
2022-11-27T17:06:48.269Z,7.16
2022-11-27T17:10:51.685Z,8.283
2022-11-27T17:12:52.824Z,4.071
2022-11-27T17:14:53.819Z,4.352
2022-11-27T17:16:55.844Z,3.51
2022-11-27T17:20:57.973Z,5.194
2022-11-27T17:22:59.118Z,4.914
2022-11-27T17:25:00.950Z,3.369
2022-11-27T17:27:02.860Z,3.79
2022-11-27T17:29:04.779Z,1.965
2022-11-27T17:31:05.852Z,2.106
2022-11-27T17:33:06.942Z,4.071
2022-11-27T17:35:08.116Z,1.404
2022-11-27T17:37:09.563Z,1.684
2022-11-27T17:39:11.522Z,3.369
2022-11-27T17:41:12.672Z,4.633
2022-11-27T17:43:14.269Z,0.982
2022-11-27T17:45:15.713Z,4.492
2022-11-27T17:47:17.391Z,3.369
2022-11-27T17:49:19.385Z,4.071
2022-11-27T17:53:22.893Z,2.106
2022-11-27T17:55:24.049Z,4.492
2022-11-27T17:57:25.078Z,5.896
2022-11-27T17:59:26.225Z,4.071
2022-11-27T18:03:29.422Z,3.088
2022-11-27T18:05:30.675Z,4.633
2022-11-27T18:07:32.688Z,0.28
2022-11-27T18:09:34.440Z,0.28
2022-11-27T18:11:36.182Z,0.28
2022-11-27T18:13:37.757Z,2.106
2022-11-27T18:15:39.479Z,0.982
2022-11-27T18:17:40.445Z,1.825
2022-11-27T18:19:42.024Z,3.229
2022-11-27T18:21:43.630Z,3.229
2022-11-27T18:24:00.530Z,1.965
2022-11-27T18:25:48.911Z,4.212
2022-11-27T18:27:47.359Z,4.071
2022-11-27T18:29:48.722Z,0.982
2022-11-27T18:31:50.500Z,0.28
2022-11-27T18:33:52.212Z,0
2022-11-27T18:35:53.451Z,1.123
2022-11-27T18:37:55.226Z,2.246
2022-11-27T18:39:57.112Z,1.684
2022-11-27T18:41:58.360Z,1.684
2022-11-27T18:43:59.710Z,3.65
2022-11-27T18:46:00.829Z,2.246
2022-11-27T18:48:02.741Z,3.51
2022-11-27T18:50:04.687Z,3.369
2022-11-27T18:52:05.996Z,9.828
2022-11-27T18:54:07.921Z,6.598
2022-11-27T18:56:09.364Z,5.616
2022-11-27T18:58:11.226Z,5.475
2022-11-27T19:00:12.645Z,6.037
2022-11-27T19:02:13.973Z,3.369
2022-11-27T19:04:15.052Z,2.808
2022-11-27T19:06:16.542Z,6.739
2022-11-27T19:08:18.273Z,3.369
2022-11-27T19:10:19.934Z,2.527
2022-11-27T19:12:21.868Z,0
2022-11-27T19:14:22.968Z,1.544
2022-11-27T19:16:24.676Z,0.14
2022-11-27T19:18:26.260Z,4.352
2022-11-27T19:20:27.429Z,5.616
2022-11-27T19:22:28.534Z,3.51
2022-11-27T19:24:29.787Z,0.842
2022-11-27T19:26:30.882Z,1.684
2022-11-27T19:28:32.604Z,0.702
2022-11-27T19:30:34.285Z,2.386
2022-11-27T19:32:36.077Z,6.598
2022-11-27T19:34:37.219Z,4.071
2022-11-27T19:36:38.779Z,5.475
2022-11-27T19:38:40.351Z,3.088
2022-11-27T19:40:41.820Z,2.386
2022-11-27T19:42:43.077Z,2.106
2022-11-27T19:44:44.893Z,4.492
2022-11-27T19:46:46.025Z,4.212
2022-11-27T19:48:47.124Z,6.739
2022-11-27T19:50:48.117Z,2.386
2022-11-27T19:52:49.232Z,4.773
2022-11-27T19:54:51.259Z,6.879
2022-11-27T19:56:52.950Z,3.369
2022-11-27T19:58:54.318Z,3.229
2022-11-27T20:00:56.124Z,1.404
2022-11-27T20:02:57.517Z,3.79
2022-11-27T20:04:58.598Z,1.404
2022-11-27T20:06:59.984Z,5.475
2022-11-27T20:09:01.289Z,3.65
2022-11-27T20:11:02.514Z,2.948
2022-11-27T20:13:03.754Z,1.684
2022-11-27T20:17:07.142Z,3.088
2022-11-27T20:19:09.026Z,5.475
2022-11-27T20:21:10.925Z,5.054
2022-11-27T20:23:12.479Z,0
2022-11-27T20:25:19.769Z,1.404
2022-11-27T20:27:15.571Z,0
2022-11-27T20:29:17.499Z,0.28
2022-11-27T20:31:19.278Z,1.404
2022-11-27T20:33:20.911Z,0
2022-11-27T20:35:22.733Z,0
2022-11-27T20:37:23.853Z,0
2022-11-27T20:39:25.157Z,0
2022-11-27T20:41:26.253Z,0
2022-11-27T20:43:27.799Z,0
2022-11-27T20:45:29.282Z,0
2022-11-27T20:47:31.120Z,0
2022-11-27T20:49:32.769Z,0
2022-11-27T20:51:34.213Z,1.404
2022-11-27T20:53:35.481Z,0.561
2022-11-27T20:55:37.189Z,1.965
2022-11-27T20:59:40.276Z,2.808
2022-11-27T21:01:41.970Z,0
2022-11-27T21:03:43.520Z,3.931
2022-11-27T21:05:45.012Z,0.982
2022-11-27T21:09:48.232Z,4.633
2022-11-27T21:11:49.564Z,5.335
2022-11-27T21:13:51.229Z,1.825
2022-11-27T21:15:52.643Z,5.194
2022-11-27T21:17:54.595Z,4.492
2022-11-27T21:19:55.779Z,2.527
2022-11-27T21:21:57.078Z,3.229
2022-11-27T21:23:58.278Z,3.79
2022-11-27T21:25:59.827Z,0.702
2022-11-27T21:28:01.793Z,0.421
2022-11-27T21:30:02.893Z,4.633
2022-11-27T21:32:04.565Z,2.667
2022-11-27T21:34:05.744Z,1.263
2022-11-27T21:36:07.117Z,1.263
2022-11-27T21:38:08.345Z,1.825
2022-11-27T21:42:11.786Z,0
2022-11-27T21:44:13.674Z,0.842
2022-11-27T21:46:15.087Z,2.386
2022-11-27T21:48:16.566Z,1.404
2022-11-27T21:52:19.595Z,0.842
2022-11-27T21:54:20.977Z,2.527
2022-11-27T21:56:22.937Z,1.825
2022-11-27T21:58:24.715Z,0.702
2022-11-27T22:00:26.664Z,1.684
2022-11-27T22:02:28.197Z,1.263
2022-11-27T22:04:30.129Z,1.825
2022-11-27T22:06:31.429Z,2.106
2022-11-27T22:08:32.477Z,3.369
2022-11-27T22:10:33.681Z,3.79
2022-11-27T22:12:34.834Z,3.931
2022-11-27T22:14:36.212Z,1.404
2022-11-27T22:16:44.291Z,0.982
2022-11-27T22:18:39.408Z,0.842
2022-11-27T22:20:40.836Z,0
2022-11-27T22:24:44.352Z,0.842
2022-11-27T22:26:45.560Z,0.28
2022-11-27T22:28:46.950Z,0
2022-11-27T22:30:48.878Z,0
2022-11-27T22:34:51.834Z,0
2022-11-27T22:36:53.510Z,0
2022-11-27T22:38:55.355Z,1.263
2022-11-27T22:40:57.278Z,0.842
2022-11-27T22:42:59.127Z,1.404
2022-11-27T22:45:00.878Z,0.421
2022-11-27T22:47:02.922Z,1.263
2022-11-27T22:49:04.014Z,0.561
2022-11-27T22:51:05.133Z,0.982
2022-11-27T22:53:06.662Z,1.825
2022-11-27T22:55:08.551Z,0
2022-11-27T22:57:10.506Z,0.842
2022-11-27T23:01:13.948Z,2.667
2022-11-27T23:03:15.379Z,4.492
2022-11-27T23:07:23.792Z,5.616
2022-11-27T23:09:20.158Z,4.633
2022-11-27T23:11:21.286Z,3.931
2022-11-27T23:13:22.340Z,6.318
2022-11-27T23:17:25.444Z,7.862
2022-11-27T23:19:27.192Z,8.143
2022-11-27T23:21:28.681Z,13.478
2022-11-27T23:23:29.709Z,9.968
2022-11-27T23:25:30.831Z,13.759
2022-11-27T23:29:33.589Z,14.601
2022-11-27T23:31:35.428Z,12.636
2022-11-27T23:33:36.897Z,12.214
2022-11-27T23:35:38.576Z,10.249
2022-11-27T23:37:39.586Z,7.02
2022-11-27T23:39:40.588Z,2.106
2022-11-27T23:41:42.103Z,4.773
2022-11-27T23:43:43.807Z,5.475
2022-11-27T23:44:27.676Z,10.67
2022-11-27T23:46:28.801Z,5.194
2022-11-27T23:48:29.940Z,4.212
2022-11-27T23:50:31.516Z,2.808
2022-11-27T23:54:35.074Z,1.404
2022-11-27T23:56:36.279Z,4.352
2022-11-27T23:58:40.212Z,2.246
